createdAt,value
2017-11-21T00:00:53.687Z,0
2017-11-21T00:02:02.875Z,0
2017-11-21T00:03:11.792Z,0
2017-11-21T00:04:20.449Z,0
2017-11-21T00:05:30.150Z,0
2017-11-21T00:06:39.064Z,0
2017-11-21T00:07:47.719Z,0
2017-11-21T00:08:56.377Z,0
2017-11-21T00:10:05.284Z,0
2017-11-21T00:11:13.934Z,0
2017-11-21T00:12:23.417Z,0
2017-11-21T00:13:32.603Z,0
2017-11-21T00:14:41.794Z,0
2017-11-21T00:15:50.719Z,0
2017-11-21T00:16:59.906Z,0
2017-11-21T00:18:08.844Z,0
2017-11-21T00:19:18.037Z,0
2017-11-21T00:20:26.958Z,0
2017-11-21T00:21:35.895Z,0
2017-11-21T00:22:45.086Z,0
2017-11-21T00:23:54.526Z,0
2017-11-21T00:25:03.774Z,0
2017-11-21T00:26:12.945Z,0
2017-11-21T00:27:22.144Z,0
2017-11-21T00:28:30.838Z,0
2017-11-21T00:29:40.036Z,0
2017-11-21T00:30:49.206Z,0
2017-11-21T00:31:58.391Z,0
2017-11-21T00:33:07.859Z,0
2017-11-21T00:34:17.055Z,0
2017-11-21T00:35:26.004Z,0
2017-11-21T00:36:34.926Z,0
2017-11-21T00:37:43.835Z,0
2017-11-21T00:38:53.013Z,0
2017-11-21T00:40:02.456Z,0
2017-11-21T00:41:11.913Z,0
2017-11-21T00:42:21.092Z,0
2017-11-21T00:43:30.532Z,0
2017-11-21T00:44:39.745Z,0
2017-11-21T00:45:48.409Z,0
2017-11-21T00:46:57.326Z,0
2017-11-21T00:48:06.250Z,0
2017-11-21T00:49:15.423Z,0
2017-11-21T00:50:24.352Z,0
2017-11-21T00:51:33.253Z,0
2017-11-21T00:52:42.703Z,0
2017-11-21T00:53:51.632Z,0
2017-11-21T00:55:00.808Z,0
2017-11-21T00:56:10.266Z,0
2017-11-21T00:57:19.724Z,0
2017-11-21T00:58:28.389Z,0
2017-11-21T00:59:37.303Z,0
2017-11-21T01:00:45.961Z,0
2017-11-21T01:01:54.614Z,0
2017-11-21T01:03:03.331Z,0
2017-11-21T01:04:12.788Z,0
2017-11-21T01:05:21.981Z,0
2017-11-21T01:06:31.150Z,0
2017-11-21T01:07:40.081Z,0
2017-11-21T01:08:49.079Z,0
2017-11-21T01:09:58.590Z,0
2017-11-21T01:11:07.490Z,0
2017-11-21T01:12:16.949Z,0
2017-11-21T01:13:25.897Z,0
2017-11-21T01:14:34.802Z,0
2017-11-21T01:15:43.718Z,0
2017-11-21T01:16:52.952Z,0
2017-11-21T01:18:01.864Z,0
2017-11-21T01:19:10.780Z,0
2017-11-21T01:20:19.970Z,0
2017-11-21T01:21:28.898Z,0
2017-11-21T01:22:38.085Z,0
2017-11-21T01:23:46.996Z,0
2017-11-21T01:24:55.656Z,0
2017-11-21T01:26:04.847Z,0
2017-11-21T01:27:13.764Z,0
2017-11-21T01:28:23.233Z,0
2017-11-21T01:29:32.152Z,0
2017-11-21T01:30:41.350Z,0
2017-11-21T01:31:50.785Z,0
2017-11-21T01:32:59.699Z,0
2017-11-21T01:34:08.884Z,0
2017-11-21T01:35:18.527Z,0
2017-11-21T01:36:27.445Z,0
2017-11-21T01:37:37.161Z,0
2017-11-21T01:38:46.620Z,0
2017-11-21T01:39:55.280Z,0
2017-11-21T01:41:04.201Z,0
2017-11-21T01:42:13.116Z,0
2017-11-21T01:43:22.051Z,0
2017-11-21T01:44:31.227Z,0
2017-11-21T01:45:39.883Z,0
2017-11-21T01:46:49.080Z,0
2017-11-21T01:47:58.515Z,0
2017-11-21T01:49:07.220Z,0
2017-11-21T01:50:16.431Z,0
2017-11-21T01:51:25.337Z,0
2017-11-21T01:52:34.251Z,0
2017-11-21T01:53:43.429Z,0
2017-11-21T01:54:52.356Z,0
2017-11-21T01:56:01.535Z,0
2017-11-21T01:57:10.977Z,0
2017-11-21T01:58:20.166Z,0
2017-11-21T01:59:29.340Z,0
2017-11-21T02:00:38.253Z,0
2017-11-21T02:01:46.925Z,0
2017-11-21T02:02:55.574Z,0
2017-11-21T02:04:04.757Z,0
2017-11-21T02:05:13.938Z,0
2017-11-21T02:06:22.876Z,0
2017-11-21T02:07:32.057Z,0
2017-11-21T02:08:41.538Z,0
2017-11-21T02:09:50.167Z,0
2017-11-21T02:10:59.089Z,0
2017-11-21T02:12:08.556Z,0
2017-11-21T02:13:17.477Z,0
2017-11-21T02:14:26.393Z,0
2017-11-21T02:15:35.052Z,0
2017-11-21T02:16:44.536Z,0
2017-11-21T02:17:54.264Z,0
2017-11-21T02:19:03.260Z,0
2017-11-21T02:20:12.179Z,0
2017-11-21T02:21:21.132Z,0
2017-11-21T02:22:30.294Z,0
2017-11-21T02:23:40.024Z,0
2017-11-21T02:24:49.478Z,0
2017-11-21T02:25:58.383Z,0
2017-11-21T02:27:07.289Z,0
2017-11-21T02:28:16.466Z,0
2017-11-21T02:29:25.917Z,0
2017-11-21T02:30:34.872Z,0
2017-11-21T02:31:43.789Z,0
2017-11-21T02:32:52.715Z,0
2017-11-21T02:34:01.892Z,0
2017-11-21T02:35:11.621Z,0
2017-11-21T02:36:20.540Z,0
2017-11-21T02:37:29.468Z,0
2017-11-21T02:38:38.939Z,0
2017-11-21T02:39:48.374Z,0
2017-11-21T02:40:58.350Z,0
2017-11-21T02:42:07.790Z,0
2017-11-21T02:43:16.977Z,0
2017-11-21T02:44:26.148Z,0
2017-11-21T02:45:35.334Z,0
2017-11-21T02:46:44.771Z,0
2017-11-21T02:47:53.944Z,0
2017-11-21T02:49:03.382Z,0
2017-11-21T02:50:12.838Z,0
2017-11-21T02:51:21.771Z,0
2017-11-21T02:52:30.688Z,0
2017-11-21T02:53:40.395Z,0
2017-11-21T02:54:49.854Z,0
2017-11-21T02:55:58.770Z,0
2017-11-21T02:57:07.437Z,0
2017-11-21T02:58:16.089Z,0
2017-11-21T02:59:25.001Z,0
2017-11-21T03:00:33.911Z,0
2017-11-21T03:01:43.118Z,0
2017-11-21T03:02:51.769Z,0
2017-11-21T03:04:00.976Z,0
2017-11-21T03:05:09.896Z,0
2017-11-21T03:06:19.074Z,0
2017-11-21T03:07:28.047Z,0
2017-11-21T03:08:37.234Z,0
2017-11-21T03:09:46.146Z,0
2017-11-21T03:10:55.084Z,0
2017-11-21T03:12:04.273Z,0
2017-11-21T03:13:14.236Z,0
2017-11-21T03:14:23.407Z,0
2017-11-21T03:15:32.848Z,0
2017-11-21T03:16:42.288Z,0
2017-11-21T03:17:51.554Z,0
2017-11-21T03:19:01.022Z,0
2017-11-21T03:20:10.734Z,0
2017-11-21T03:21:19.660Z,0
2017-11-21T03:22:28.583Z,0
2017-11-21T03:23:37.513Z,0
2017-11-21T03:24:46.162Z,0
2017-11-21T03:25:54.838Z,0
2017-11-21T03:27:04.030Z,0
2017-11-21T03:28:13.218Z,0
2017-11-21T03:29:22.668Z,0
2017-11-21T03:30:31.599Z,0
2017-11-21T03:31:41.062Z,0
2017-11-21T03:32:49.980Z,0
2017-11-21T03:33:59.444Z,0
2017-11-21T03:35:08.649Z,0
2017-11-21T03:36:17.565Z,0
2017-11-21T03:37:27.039Z,0
2017-11-21T03:38:36.216Z,0
2017-11-21T03:39:45.141Z,0
2017-11-21T03:40:54.054Z,0
2017-11-21T03:42:03.008Z,0
2017-11-21T03:43:12.185Z,0
2017-11-21T03:44:21.100Z,0
2017-11-21T03:45:30.551Z,0
2017-11-21T03:46:40.007Z,0
2017-11-21T03:47:48.955Z,0
2017-11-21T03:48:57.888Z,0
2017-11-21T03:50:07.355Z,0
2017-11-21T03:51:16.545Z,0
2017-11-21T03:52:25.464Z,0
2017-11-21T03:53:34.383Z,0
2017-11-21T03:54:43.601Z,0
2017-11-21T03:55:52.782Z,0
2017-11-21T03:57:02.226Z,0
2017-11-21T03:58:11.415Z,0
2017-11-21T03:59:26.334Z,0
2017-11-21T04:00:35.527Z,0
2017-11-21T04:01:44.962Z,0
2017-11-21T04:02:54.152Z,0
2017-11-21T04:04:03.324Z,0
2017-11-21T04:05:11.985Z,0
2017-11-21T04:06:21.184Z,0
2017-11-21T04:07:29.854Z,0
2017-11-21T04:08:38.493Z,0
2017-11-21T04:09:47.409Z,0
2017-11-21T04:10:56.584Z,0
2017-11-21T04:12:05.538Z,0
2017-11-21T04:13:14.704Z,0
2017-11-21T04:14:24.170Z,0
2017-11-21T04:15:33.075Z,0
2017-11-21T04:16:42.238Z,0
2017-11-21T04:17:51.145Z,0
2017-11-21T04:19:00.074Z,0
2017-11-21T04:20:08.738Z,0
2017-11-21T04:21:17.649Z,0
2017-11-21T04:22:26.297Z,0
2017-11-21T04:23:35.202Z,0
2017-11-21T04:24:43.865Z,0
2017-11-21T04:25:52.773Z,0
2017-11-21T04:27:01.958Z,0
2017-11-21T04:28:11.667Z,0
2017-11-21T04:29:21.101Z,0
2017-11-21T04:30:29.738Z,0
2017-11-21T04:31:38.910Z,0
2017-11-21T04:32:47.815Z,0
2017-11-21T04:33:56.726Z,0
2017-11-21T04:35:05.963Z,0
2017-11-21T04:36:15.650Z,0
2017-11-21T04:37:24.572Z,0
2017-11-21T04:38:33.997Z,0
2017-11-21T04:39:43.161Z,0
2017-11-21T04:40:52.415Z,0
2017-11-21T04:42:01.329Z,0
2017-11-21T04:43:10.534Z,0
2017-11-21T04:44:19.719Z,0
2017-11-21T04:45:28.904Z,0
2017-11-21T04:46:38.075Z,0
2017-11-21T04:47:46.981Z,0
2017-11-21T04:48:56.406Z,0
2017-11-21T04:50:05.055Z,0
2017-11-21T04:51:14.217Z,0
2017-11-21T04:52:23.378Z,0
2017-11-21T04:53:32.033Z,0
2017-11-21T04:54:41.215Z,0
2017-11-21T04:55:50.422Z,0
2017-11-21T04:56:59.043Z,0
2017-11-21T04:58:08.227Z,0
2017-11-21T04:59:17.716Z,0
2017-11-21T05:00:27.202Z,0
2017-11-21T05:01:36.109Z,0
2017-11-21T05:02:45.281Z,0
2017-11-21T05:03:54.188Z,0
2017-11-21T05:05:02.839Z,0
2017-11-21T05:06:12.038Z,0
2017-11-21T05:07:21.218Z,0
2017-11-21T05:08:30.680Z,0
2017-11-21T05:09:39.615Z,0
2017-11-21T05:10:48.261Z,0
2017-11-21T05:11:57.179Z,0
2017-11-21T05:13:05.828Z,0
2017-11-21T05:14:14.724Z,0
2017-11-21T05:15:24.411Z,0
2017-11-21T05:16:33.596Z,0
2017-11-21T05:17:42.797Z,0
2017-11-21T05:18:51.705Z,0
2017-11-21T05:20:00.599Z,0
2017-11-21T05:21:09.509Z,0
2017-11-21T05:22:18.694Z,0
2017-11-21T05:23:27.629Z,0
2017-11-21T05:24:36.567Z,0
2017-11-21T05:25:46.261Z,0
2017-11-21T05:26:55.174Z,0
2017-11-21T05:28:04.347Z,0
2017-11-21T05:29:13.521Z,0
2017-11-21T05:30:23.120Z,0
2017-11-21T05:31:32.043Z,0
2017-11-21T05:32:40.963Z,0
2017-11-21T05:33:50.140Z,0
2017-11-21T05:34:59.317Z,0
2017-11-21T05:36:08.508Z,0
2017-11-21T05:37:17.422Z,0
2017-11-21T05:38:26.866Z,0
2017-11-21T05:39:36.029Z,0
2017-11-21T05:40:44.687Z,0
2017-11-21T05:41:54.123Z,0
2017-11-21T05:43:03.555Z,0
2017-11-21T05:44:12.212Z,0
2017-11-21T05:45:20.872Z,0
2017-11-21T05:46:30.082Z,0
2017-11-21T05:47:38.755Z,0
2017-11-21T05:48:47.701Z,0
2017-11-21T05:49:56.887Z,0
2017-11-21T05:51:06.073Z,0
2017-11-21T05:52:15.238Z,0
2017-11-21T05:53:24.404Z,0
2017-11-21T05:54:33.322Z,0
2017-11-21T05:55:42.234Z,0
2017-11-21T05:56:51.706Z,0
2017-11-21T05:58:01.189Z,0
2017-11-21T05:59:10.108Z,0
2017-11-21T06:00:19.017Z,0
2017-11-21T06:01:28.181Z,0
2017-11-21T06:02:37.344Z,0
2017-11-21T06:03:46.259Z,0
2017-11-21T06:04:55.431Z,0
2017-11-21T06:06:04.334Z,0
2017-11-21T06:07:13.764Z,0
2017-11-21T06:08:22.685Z,0
2017-11-21T06:09:31.851Z,0
2017-11-21T06:10:40.493Z,0
2017-11-21T06:11:49.920Z,0
2017-11-21T06:12:59.636Z,0
2017-11-21T06:14:08.821Z,8
2017-11-21T06:15:18.306Z,4
2017-11-21T06:16:26.972Z,8
2017-11-21T06:17:36.423Z,4
2017-11-21T06:18:45.609Z,4
2017-11-21T06:19:55.227Z,4
2017-11-21T06:21:04.669Z,4
2017-11-21T06:22:13.308Z,4
2017-11-21T06:23:22.231Z,4
2017-11-21T06:24:30.890Z,4
2017-11-21T06:25:40.085Z,4
2017-11-21T06:26:48.996Z,4
2017-11-21T06:27:58.439Z,8
2017-11-21T06:29:07.614Z,8
2017-11-21T06:30:16.529Z,4
2017-11-21T06:31:26.236Z,4
2017-11-21T06:32:35.189Z,4
2017-11-21T06:33:44.098Z,4
2017-11-21T06:34:53.811Z,4
2017-11-21T06:36:02.986Z,4
2017-11-21T06:37:11.645Z,4
2017-11-21T06:38:20.560Z,4
2017-11-21T06:39:30.009Z,4
2017-11-21T06:40:39.227Z,4
2017-11-21T06:41:48.140Z,4
2017-11-21T06:42:57.325Z,8
2017-11-21T06:44:07.065Z,8
2017-11-21T06:45:16.799Z,8
2017-11-21T06:46:26.252Z,8
2017-11-21T06:47:35.167Z,4
2017-11-21T06:48:44.878Z,4
2017-11-21T06:49:54.066Z,4
2017-11-21T06:51:02.985Z,8
2017-11-21T06:52:11.893Z,8
2017-11-21T06:53:21.088Z,8
2017-11-21T06:54:29.734Z,8
2017-11-21T06:55:38.933Z,8
2017-11-21T06:56:48.122Z,8
2017-11-21T06:57:57.296Z,8
2017-11-21T06:59:07.011Z,8
2017-11-21T07:00:16.483Z,4
2017-11-21T07:01:25.442Z,8
2017-11-21T07:02:35.148Z,12
2017-11-21T07:03:44.597Z,12
2017-11-21T07:04:53.251Z,8
2017-11-21T07:06:02.429Z,16
2017-11-21T07:07:11.878Z,12
2017-11-21T07:08:20.803Z,12
2017-11-21T07:09:29.980Z,12
2017-11-21T07:10:39.165Z,12
2017-11-21T07:11:48.074Z,12
2017-11-21T07:12:57.004Z,12
2017-11-21T07:14:05.951Z,20
2017-11-21T07:15:14.854Z,20
2017-11-21T07:16:24.027Z,28
2017-11-21T07:17:32.937Z,24
2017-11-21T07:18:41.854Z,28
2017-11-21T07:19:51.059Z,28
2017-11-21T07:20:59.991Z,24
2017-11-21T07:22:08.932Z,20
2017-11-21T07:23:18.101Z,24
2017-11-21T07:24:27.282Z,32
2017-11-21T07:25:36.210Z,28
2017-11-21T07:26:45.375Z,32
2017-11-21T07:27:54.033Z,36
2017-11-21T07:29:03.201Z,36
2017-11-21T07:30:12.386Z,40
2017-11-21T07:31:21.565Z,40
2017-11-21T07:32:31.037Z,40
2017-11-21T07:33:40.503Z,40
2017-11-21T07:34:49.418Z,40
2017-11-21T07:35:58.625Z,44
2017-11-21T07:37:08.090Z,52
2017-11-21T07:38:17.165Z,48
2017-11-21T07:39:25.857Z,60
2017-11-21T07:40:35.091Z,72
2017-11-21T07:41:44.008Z,76
2017-11-21T07:42:53.178Z,80
2017-11-21T07:44:02.361Z,84
2017-11-21T07:45:11.549Z,80
2017-11-21T07:46:20.463Z,88
2017-11-21T07:47:29.921Z,88
2017-11-21T07:48:39.400Z,88
2017-11-21T07:49:48.848Z,84
2017-11-21T07:50:58.049Z,80
2017-11-21T07:52:06.999Z,84
2017-11-21T07:53:16.199Z,76
2017-11-21T07:54:25.391Z,72
2017-11-21T07:55:34.576Z,68
2017-11-21T07:56:43.489Z,84
2017-11-21T07:57:52.399Z,72
2017-11-21T07:59:01.063Z,80
2017-11-21T08:00:11.586Z,88
2017-11-21T08:01:20.506Z,92
2017-11-21T08:02:29.958Z,96
2017-11-21T08:03:39.665Z,112
2017-11-21T08:04:48.601Z,108
2017-11-21T08:05:57.540Z,120
2017-11-21T08:07:06.712Z,128
2017-11-21T08:08:15.378Z,124
2017-11-21T08:09:24.573Z,128
2017-11-21T08:10:33.241Z,140
2017-11-21T08:11:42.666Z,148
2017-11-21T08:12:51.610Z,180
2017-11-21T08:14:01.073Z,172
2017-11-21T08:15:10.042Z,176
2017-11-21T08:16:19.499Z,168
2017-11-21T08:17:28.424Z,176
2017-11-21T08:18:37.357Z,160
2017-11-21T08:19:46.835Z,132
2017-11-21T08:20:56.559Z,132
2017-11-21T08:22:05.489Z,148
2017-11-21T08:23:14.406Z,164
2017-11-21T08:24:23.321Z,192
2017-11-21T08:25:32.523Z,192
2017-11-21T08:26:41.465Z,172
2017-11-21T08:27:50.124Z,196
2017-11-21T08:28:59.302Z,240
2017-11-21T08:30:08.483Z,280
2017-11-21T08:31:17.933Z,356
2017-11-21T08:32:26.866Z,284
2017-11-21T08:33:36.065Z,248
2017-11-21T08:34:44.971Z,268
2017-11-21T08:35:53.881Z,324
2017-11-21T08:37:03.348Z,364
2017-11-21T08:38:12.268Z,360
2017-11-21T08:39:21.191Z,324
2017-11-21T08:40:30.685Z,328
2017-11-21T08:41:40.130Z,280
2017-11-21T08:42:49.048Z,256
2017-11-21T08:43:58.259Z,240
2017-11-21T08:45:07.718Z,248
2017-11-21T08:46:17.430Z,200
2017-11-21T08:47:26.617Z,216
2017-11-21T08:48:36.073Z,264
2017-11-21T08:49:45.041Z,264
2017-11-21T08:50:54.515Z,280
2017-11-21T08:52:03.703Z,372
2017-11-21T08:53:12.909Z,508
2017-11-21T08:54:22.090Z,524
2017-11-21T08:55:31.054Z,452
2017-11-21T08:56:40.043Z,492
2017-11-21T08:57:49.487Z,508
2017-11-21T08:58:58.673Z,560
2017-11-21T09:00:07.857Z,736
2017-11-21T09:01:16.781Z,588
2017-11-21T09:02:25.954Z,508
2017-11-21T09:03:34.620Z,624
2017-11-21T09:04:44.066Z,520
2017-11-21T09:05:53.249Z,508
2017-11-21T09:07:02.159Z,368
2017-11-21T09:08:10.826Z,324
2017-11-21T09:09:19.745Z,368
2017-11-21T09:10:28.680Z,460
2017-11-21T09:11:38.121Z,412
2017-11-21T09:12:46.773Z,388
2017-11-21T09:13:55.948Z,404
2017-11-21T09:15:05.174Z,384
2017-11-21T09:16:14.088Z,452
2017-11-21T09:17:23.014Z,404
2017-11-21T09:18:32.242Z,516
2017-11-21T09:19:41.674Z,696
2017-11-21T09:20:50.599Z,488
2017-11-21T09:21:59.504Z,472
2017-11-21T09:23:09.230Z,408
2017-11-21T09:24:18.409Z,432
2017-11-21T09:25:27.851Z,400
2017-11-21T09:26:37.036Z,528
2017-11-21T09:27:45.953Z,580
2017-11-21T09:28:54.872Z,604
2017-11-21T09:30:03.561Z,724
2017-11-21T09:31:12.788Z,604
2017-11-21T09:32:21.968Z,700
2017-11-21T09:33:31.157Z,832
2017-11-21T09:34:40.076Z,836
2017-11-21T09:35:49.010Z,728
2017-11-21T09:36:58.441Z,716
2017-11-21T09:38:07.877Z,604
2017-11-21T09:39:17.069Z,620
2017-11-21T09:40:25.730Z,540
2017-11-21T09:41:34.919Z,548
2017-11-21T09:42:43.562Z,536
2017-11-21T09:43:53.008Z,780
2017-11-21T09:45:01.927Z,720
2017-11-21T09:46:10.873Z,732
2017-11-21T09:47:20.053Z,768
2017-11-21T09:48:28.982Z,768
2017-11-21T09:49:38.164Z,788
2017-11-21T09:50:46.815Z,848
2017-11-21T09:51:55.753Z,768
2017-11-21T09:53:04.929Z,792
2017-11-21T09:54:14.383Z,704
2017-11-21T09:55:23.329Z,744
2017-11-21T09:56:32.779Z,696
2017-11-21T09:57:41.689Z,740
2017-11-21T09:58:50.670Z,664
2017-11-21T09:59:59.286Z,640
2017-11-21T10:01:08.471Z,728
2017-11-21T10:02:17.710Z,848
2017-11-21T10:03:26.890Z,724
2017-11-21T10:04:35.816Z,744
2017-11-21T10:05:44.838Z,852
2017-11-21T10:06:54.514Z,832
2017-11-21T10:08:03.972Z,600
2017-11-21T10:09:13.413Z,560
2017-11-21T10:10:22.066Z,536
2017-11-21T10:11:30.977Z,488
2017-11-21T10:12:40.673Z,536
2017-11-21T10:13:49.596Z,484
2017-11-21T10:14:59.041Z,472
2017-11-21T10:16:08.218Z,528
2017-11-21T10:17:17.397Z,472
2017-11-21T10:18:27.002Z,516
2017-11-21T10:19:36.467Z,500
2017-11-21T10:20:45.400Z,548
2017-11-21T10:21:55.100Z,484
2017-11-21T10:23:04.807Z,508
2017-11-21T10:24:13.747Z,600
2017-11-21T10:25:22.668Z,508
2017-11-21T10:26:31.860Z,580
2017-11-21T10:27:40.784Z,596
2017-11-21T10:28:49.785Z,664
2017-11-21T10:29:59.509Z,592
2017-11-21T10:31:09.219Z,484
2017-11-21T10:32:18.393Z,556
2017-11-21T10:33:27.569Z,620
2017-11-21T10:34:36.488Z,636
2017-11-21T10:35:45.400Z,640
2017-11-21T10:36:54.578Z,608
2017-11-21T10:38:03.520Z,584
2017-11-21T10:39:12.710Z,588
2017-11-21T10:40:22.159Z,592
2017-11-21T10:41:31.357Z,556
2017-11-21T10:42:40.280Z,584
2017-11-21T10:43:49.731Z,580
2017-11-21T10:44:59.192Z,548
2017-11-21T10:46:08.124Z,564
2017-11-21T10:47:17.300Z,556
2017-11-21T10:48:26.207Z,592
2017-11-21T10:49:35.130Z,596
2017-11-21T10:50:44.058Z,608
2017-11-21T10:51:53.019Z,680
2017-11-21T10:53:02.478Z,684
2017-11-21T10:54:12.195Z,644
2017-11-21T10:55:21.108Z,644
2017-11-21T10:56:29.757Z,724
2017-11-21T10:57:38.429Z,776
2017-11-21T10:58:47.335Z,688
2017-11-21T10:59:56.776Z,644
2017-11-21T11:01:06.483Z,552
2017-11-21T11:02:15.128Z,644
2017-11-21T11:03:24.040Z,716
2017-11-21T11:04:33.470Z,744
2017-11-21T11:05:42.708Z,712
2017-11-21T11:06:51.628Z,628
2017-11-21T11:08:00.542Z,568
2017-11-21T11:09:09.193Z,624
2017-11-21T11:10:18.368Z,596
2017-11-21T11:11:27.296Z,612
2017-11-21T11:12:36.506Z,632
2017-11-21T11:13:45.731Z,632
2017-11-21T11:14:54.918Z,620
2017-11-21T11:16:04.107Z,600
2017-11-21T11:17:13.303Z,604
2017-11-21T11:18:22.213Z,572
2017-11-21T11:19:30.865Z,580
2017-11-21T11:20:40.046Z,640
2017-11-21T11:21:49.248Z,688
2017-11-21T11:22:58.428Z,760
2017-11-21T11:24:07.343Z,904
2017-11-21T11:25:15.998Z,836
2017-11-21T11:26:25.177Z,680
2017-11-21T11:27:34.159Z,636
2017-11-21T11:28:43.109Z,668
2017-11-21T11:29:52.300Z,608
2017-11-21T11:31:01.242Z,516
2017-11-21T11:32:10.262Z,528
2017-11-21T11:33:19.180Z,476
2017-11-21T11:34:28.364Z,424
2017-11-21T11:35:37.557Z,484
2017-11-21T11:36:46.472Z,476
2017-11-21T11:37:55.917Z,512
2017-11-21T11:39:05.395Z,576
2017-11-21T11:40:14.592Z,704
2017-11-21T11:41:23.803Z,612
2017-11-21T11:42:33.247Z,572
2017-11-21T11:43:42.748Z,548
2017-11-21T11:44:51.668Z,468
2017-11-21T11:46:00.574Z,500
2017-11-21T11:47:10.031Z,524
2017-11-21T11:48:19.470Z,492
2017-11-21T11:49:28.671Z,524
2017-11-21T11:50:37.597Z,516
2017-11-21T11:51:46.591Z,556
2017-11-21T11:52:56.051Z,564
2017-11-21T11:54:04.715Z,640
2017-11-21T11:55:14.196Z,616
2017-11-21T11:56:23.408Z,756
2017-11-21T11:57:33.403Z,760
2017-11-21T11:58:42.369Z,880
2017-11-21T11:59:51.554Z,980
2017-11-21T12:01:00.504Z,916
2017-11-21T12:02:09.690Z,888
2017-11-21T12:03:18.918Z,976
2017-11-21T12:04:28.378Z,884
2017-11-21T12:05:37.842Z,828
2017-11-21T12:06:47.052Z,776
2017-11-21T12:07:56.255Z,628
2017-11-21T12:09:05.183Z,620
2017-11-21T12:10:14.899Z,636
2017-11-21T12:11:24.076Z,632
2017-11-21T12:12:32.998Z,620
2017-11-21T12:13:42.448Z,660
2017-11-21T12:14:51.634Z,652
2017-11-21T12:16:01.356Z,704
2017-11-21T12:17:10.654Z,712
2017-11-21T12:18:19.831Z,756
2017-11-21T12:19:28.514Z,680
2017-11-21T12:20:38.231Z,600
2017-11-21T12:21:47.444Z,764
2017-11-21T12:22:56.378Z,712
2017-11-21T12:24:06.088Z,652
2017-11-21T12:25:15.620Z,568
2017-11-21T12:26:24.532Z,532
2017-11-21T12:27:33.720Z,456
2017-11-21T12:28:43.432Z,460
2017-11-21T12:29:52.874Z,604
2017-11-21T12:31:01.798Z,532
2017-11-21T12:32:10.985Z,484
2017-11-21T12:33:19.914Z,484
2017-11-21T12:34:28.847Z,416
2017-11-21T12:35:38.025Z,460
2017-11-21T12:36:46.672Z,420
2017-11-21T12:37:56.138Z,388
2017-11-21T12:39:05.046Z,424
2017-11-21T12:40:14.248Z,424
2017-11-21T12:41:23.712Z,492
2017-11-21T12:42:32.899Z,464
2017-11-21T12:43:42.337Z,508
2017-11-21T12:44:51.535Z,560
2017-11-21T12:46:00.715Z,452
2017-11-21T12:47:09.628Z,440
2017-11-21T12:48:18.805Z,440
2017-11-21T12:49:27.718Z,416
2017-11-21T12:50:36.951Z,396
2017-11-21T12:51:46.163Z,416
2017-11-21T12:52:55.350Z,404
2017-11-21T12:54:04.778Z,364
2017-11-21T12:55:13.695Z,424
2017-11-21T12:56:22.610Z,536
2017-11-21T12:57:32.065Z,488
2017-11-21T12:58:40.718Z,576
2017-11-21T12:59:50.709Z,516
2017-11-21T13:00:59.620Z,528
2017-11-21T13:02:08.825Z,512
2017-11-21T13:03:17.744Z,532
2017-11-21T13:04:26.653Z,472
2017-11-21T13:05:35.570Z,444
2017-11-21T13:06:44.480Z,460
2017-11-21T13:07:53.722Z,444
2017-11-21T13:09:02.645Z,476
2017-11-21T13:10:11.566Z,444
2017-11-21T13:11:20.498Z,480
2017-11-21T13:12:29.430Z,400
2017-11-21T13:13:38.613Z,468
2017-11-21T13:14:47.794Z,448
2017-11-21T13:15:56.998Z,420
2017-11-21T13:17:05.934Z,464
2017-11-21T13:18:14.866Z,432
2017-11-21T13:19:24.319Z,472
2017-11-21T13:20:33.532Z,468
2017-11-21T13:21:42.980Z,400
2017-11-21T13:22:51.930Z,480
2017-11-21T13:24:00.865Z,484
2017-11-21T13:25:10.082Z,468
2017-11-21T13:26:19.016Z,388
2017-11-21T13:27:28.202Z,436
2017-11-21T13:28:37.439Z,464
2017-11-21T13:29:46.654Z,392
2017-11-21T13:30:55.870Z,476
2017-11-21T13:32:04.543Z,408
2017-11-21T13:33:13.725Z,440
2017-11-21T13:34:22.905Z,472
2017-11-21T13:35:31.552Z,344
2017-11-21T13:36:40.506Z,376
2017-11-21T13:37:49.694Z,356
2017-11-21T13:38:58.881Z,364
2017-11-21T13:40:08.064Z,416
2017-11-21T13:41:16.999Z,432
2017-11-21T13:42:25.673Z,440
2017-11-21T13:43:34.585Z,440
2017-11-21T13:44:43.256Z,480
2017-11-21T13:45:51.911Z,520
2017-11-21T13:47:01.367Z,480
2017-11-21T13:48:10.029Z,412
2017-11-21T13:49:19.206Z,512
2017-11-21T13:50:28.408Z,464
2017-11-21T13:51:37.604Z,480
2017-11-21T13:52:46.789Z,404
2017-11-21T13:53:55.724Z,356
2017-11-21T13:55:04.913Z,340
2017-11-21T13:56:14.386Z,364
2017-11-21T13:57:23.053Z,388
2017-11-21T13:58:32.806Z,396
2017-11-21T13:59:42.004Z,336
2017-11-21T14:00:50.959Z,328
2017-11-21T14:02:00.431Z,328
2017-11-21T14:03:09.611Z,352
2017-11-21T14:04:19.323Z,324
2017-11-21T14:05:27.995Z,316
2017-11-21T14:06:37.442Z,296
2017-11-21T14:07:46.651Z,288
2017-11-21T14:08:55.584Z,308
2017-11-21T14:10:04.788Z,276
2017-11-21T14:11:14.519Z,256
2017-11-21T14:12:23.702Z,216
2017-11-21T14:13:33.423Z,188
2017-11-21T14:14:42.345Z,144
2017-11-21T14:15:51.272Z,116
2017-11-21T14:17:00.461Z,120
2017-11-21T14:18:09.637Z,124
2017-11-21T14:19:19.104Z,124
2017-11-21T14:20:28.030Z,116
2017-11-21T14:21:37.221Z,116
2017-11-21T14:22:46.681Z,132
2017-11-21T14:23:56.169Z,128
2017-11-21T14:25:05.895Z,104
2017-11-21T14:26:15.457Z,112
2017-11-21T14:27:24.665Z,104
2017-11-21T14:28:33.903Z,100
2017-11-21T14:29:43.103Z,108
2017-11-21T14:30:52.034Z,112
2017-11-21T14:32:00.950Z,112
2017-11-21T14:33:10.141Z,120
2017-11-21T14:34:19.631Z,128
2017-11-21T14:35:28.841Z,136
2017-11-21T14:36:38.044Z,140
2017-11-21T14:37:46.963Z,136
2017-11-21T14:38:56.180Z,136
2017-11-21T14:40:05.375Z,124
2017-11-21T14:41:14.564Z,116
2017-11-21T14:42:24.019Z,140
2017-11-21T14:43:32.673Z,152
2017-11-21T14:44:41.670Z,172
2017-11-21T14:45:50.892Z,180
2017-11-21T14:47:00.091Z,172
2017-11-21T14:48:08.763Z,176
2017-11-21T14:49:17.427Z,180
2017-11-21T14:50:26.348Z,176
2017-11-21T14:51:35.797Z,180
2017-11-21T14:52:44.987Z,176
2017-11-21T14:53:54.716Z,168
2017-11-21T14:55:04.007Z,160
2017-11-21T14:56:13.204Z,152
2017-11-21T14:57:21.862Z,144
2017-11-21T14:58:30.524Z,136
2017-11-21T14:59:39.463Z,136
2017-11-21T15:00:48.687Z,132
2017-11-21T15:01:58.145Z,128
2017-11-21T15:03:07.340Z,120
2017-11-21T15:04:16.314Z,112
2017-11-21T15:05:25.514Z,116
2017-11-21T15:06:34.741Z,112
2017-11-21T15:07:44.218Z,108
2017-11-21T15:08:53.427Z,96
2017-11-21T15:10:02.628Z,80
2017-11-21T15:11:11.827Z,68
2017-11-21T15:12:21.029Z,60
2017-11-21T15:13:30.754Z,52
2017-11-21T15:14:39.444Z,48
2017-11-21T15:15:48.691Z,44
2017-11-21T15:16:57.635Z,44
2017-11-21T15:18:06.556Z,40
2017-11-21T15:19:16.006Z,36
2017-11-21T15:20:25.492Z,40
2017-11-21T15:21:34.415Z,32
2017-11-21T15:22:43.346Z,32
2017-11-21T15:23:52.533Z,28
2017-11-21T15:25:01.731Z,28
2017-11-21T15:26:10.661Z,24
2017-11-21T15:27:19.852Z,24
2017-11-21T15:28:29.028Z,24
2017-11-21T15:29:38.457Z,24
2017-11-21T15:30:47.551Z,20
2017-11-21T15:31:56.986Z,16
2017-11-21T15:33:06.443Z,12
2017-11-21T15:34:16.431Z,12
2017-11-21T15:35:25.359Z,8
2017-11-21T15:36:34.287Z,12
2017-11-21T15:37:44.137Z,8
2017-11-21T15:38:53.356Z,8
2017-11-21T15:40:02.644Z,8
2017-11-21T15:41:11.673Z,8
2017-11-21T15:42:21.233Z,4
2017-11-21T15:43:30.196Z,4
2017-11-21T15:44:39.445Z,4
2017-11-21T15:45:49.231Z,4
2017-11-21T15:46:57.930Z,4
2017-11-21T15:48:07.397Z,4
2017-11-21T15:49:16.355Z,4
2017-11-21T15:50:25.641Z,0
2017-11-21T15:51:35.130Z,0
2017-11-21T15:52:43.867Z,0
2017-11-21T15:53:52.872Z,0
2017-11-21T15:55:01.895Z,0
2017-11-21T15:56:10.600Z,0
2017-11-21T15:57:19.846Z,0
2017-11-21T15:58:28.567Z,0
2017-11-21T15:59:37.556Z,0
2017-11-21T16:00:47.100Z,0
2017-11-21T16:01:56.305Z,0
2017-11-21T16:03:05.320Z,0
2017-11-21T16:04:14.622Z,0
2017-11-21T16:05:23.900Z,0
2017-11-21T16:06:33.435Z,0
2017-11-21T16:07:42.705Z,0
2017-11-21T16:08:51.441Z,0
2017-11-21T16:10:00.688Z,0
2017-11-21T16:11:09.517Z,0
2017-11-21T16:12:19.368Z,0
2017-11-21T16:13:28.495Z,0
2017-11-21T16:14:37.487Z,0
2017-11-21T16:15:47.280Z,0
2017-11-21T16:16:56.558Z,0
2017-11-21T16:18:05.332Z,0
2017-11-21T16:19:14.304Z,0
2017-11-21T16:20:23.313Z,0
2017-11-21T16:21:32.665Z,0
2017-11-21T16:22:41.951Z,0
2017-11-21T16:23:50.974Z,0
2017-11-21T16:25:00.203Z,0
2017-11-21T16:26:09.194Z,0
2017-11-21T16:27:18.458Z,0
2017-11-21T16:28:27.499Z,0